PWSweather.com
Personal Weather Stations
Station Observations
WISCHPK61
Green Bay Schmitt Park, Green Bay, WI 54311

Green Bay Schmitt ParkGreen Bay, WI 54311

Lat: 44.514277, Lon: -87.935067

Elevation: 735

Station Type: Acu Rite Pro Weather Center model 02032C

http://greenbayweathercam.com

High Low Average
Temperature 39.7°F4.3°C 20.3°F-6.5°C 28.6°F-1.9°C
Dew Point 29.9°F-1.2°C 20.1°F-6.6°C 24.9°F-3.9°C
Winds 3.5 mph 5.6 kmh Calm Calm 1.0 mph W1.6 kmh W
Wind Gusts 4.6 mph7.4 kmh -- 1.0 mph1.6 kmh
Humidity 99% 67% 87%
Pressure 29.38 in994.9 mb 29.05 in983.7 mb -
Precipitation 0.03 in0.8 mm - -
Hour Temp Dew Point Humidity Winds Wind Gusts Pressure Precip Precip Rate Daily Precip Total
12:00 AM 27.7°F-2.4°C 25.9°F-3.4°C 93% Calm Calm 2.3 mph3.7 kmh 29.06 in984.1 mb - 0.00 in0.0 mm 0.00 in0.0 mm
12:15 AM 27.9°F-2.3°C 25.9°F-3.4°C 92% Calm Calm -- 29.06 in984.1 mb - 0.00 in0.0 mm 0.00 in0.0 mm
12:30 AM 27.9°F-2.3°C 26.4°F-3.1°C 94% Calm Calm -- 29.06 in984.1 mb - 0.00 in0.0 mm 0.00 in0.0 mm
12:45 AM 27.9°F-2.3°C 26.4°F-3.1°C 94% Calm Calm -- 29.05 in983.7 mb - 0.00 in0.0 mm 0.00 in0.0 mm
01:00 AM 27.9°F-2.3°C 26.1°F-3.3°C 93% Calm Calm -- 29.05 in983.7 mb - 0.00 in0.0 mm 0.00 in0.0 mm
01:15 AM 27.7°F-2.4°C 27.0°F-2.8°C 97% Calm Calm -- 29.05 in983.7 mb - 0.00 in0.0 mm 0.00 in0.0 mm
01:30 AM 27.5°F-2.5°C 27.0°F-2.8°C 98% Calm Calm -- 29.06 in984.1 mb - 0.00 in0.0 mm 0.00 in0.0 mm
01:45 AM 27.2°F-2.7°C 27.0°F-2.8°C 99% Calm Calm -- 29.05 in983.7 mb - 0.00 in0.0 mm 0.00 in0.0 mm
02:00 AM 27.1°F-2.7°C 26.9°F-2.8°C 99% Calm Calm -- 29.05 in983.7 mb - 0.00 in0.0 mm 0.00 in0.0 mm
02:15 AM 27.1°F-2.7°C 26.9°F-2.8°C 99% Calm Calm -- 29.06 in984.1 mb - 0.00 in0.0 mm 0.00 in0.0 mm
02:30 AM 27.1°F-2.7°C 26.9°F-2.8°C 99% Calm Calm -- 29.06 in984.1 mb - 0.00 in0.0 mm 0.00 in0.0 mm
02:45 AM 27.0°F-2.8°C 26.8°F-2.9°C 99% Calm Calm 1.2 mph1.9 kmh 29.06 in984.1 mb - 0.00 in0.0 mm 0.00 in0.0 mm
03:00 AM 26.6°F-3.0°C 26.4°F-3.1°C 99% Calm Calm -- 29.07 in984.4 mb - 0.00 in0.0 mm 0.00 in0.0 mm
03:15 AM 26.1°F-3.3°C 25.9°F-3.4°C 99% Calm Calm -- 29.06 in984.1 mb - 0.00 in0.0 mm 0.00 in0.0 mm
03:30 AM 25.3°F-3.7°C 25.1°F-3.8°C 99% Calm Calm -- 29.06 in984.1 mb - 0.00 in0.0 mm 0.00 in0.0 mm
03:45 AM 25.0°F-3.9°C 24.8°F-4.0°C 99% Calm Calm -- 29.07 in984.4 mb - 0.00 in0.0 mm 0.00 in0.0 mm
04:00 AM 24.6°F-4.1°C 24.4°F-4.2°C 99% Calm Calm -- 29.07 in984.4 mb - 0.00 in0.0 mm 0.00 in0.0 mm
04:15 AM 24.3°F-4.3°C 24.1°F-4.4°C 99% Calm Calm -- 29.08 in984.8 mb - 0.00 in0.0 mm 0.00 in0.0 mm
04:30 AM 23.7°F-4.6°C 23.5°F-4.7°C 99% Calm Calm -- 29.08 in984.8 mb - 0.00 in0.0 mm 0.00 in0.0 mm
04:45 AM 23.2°F-4.9°C 23.0°F-5.0°C 99% Calm Calm -- 29.08 in984.8 mb - 0.00 in0.0 mm 0.00 in0.0 mm
05:00 AM 22.3°F-5.4°C 22.1°F-5.5°C 99% Calm Calm -- 29.09 in985.1 mb - 0.00 in0.0 mm 0.00 in0.0 mm
05:15 AM 21.7°F-5.7°C 21.5°F-5.8°C 99% Calm Calm -- 29.09 in985.1 mb - 0.00 in0.0 mm 0.00 in0.0 mm
05:30 AM 21.6°F-5.8°C 21.4°F-5.9°C 99% Calm Calm -- 29.10 in985.4 mb - 0.00 in0.0 mm 0.00 in0.0 mm
05:45 AM 21.4°F-5.9°C 21.2°F-6.0°C 99% Calm Calm -- 29.10 in985.4 mb - 0.00 in0.0 mm 0.00 in0.0 mm
06:00 AM 21.6°F-5.8°C 21.4°F-5.9°C 99% Calm Calm -- 29.10 in985.4 mb - 0.00 in0.0 mm 0.00 in0.0 mm
06:15 AM 21.6°F-5.8°C 21.4°F-5.9°C 99% Calm Calm -- 29.11 in985.8 mb - 0.00 in0.0 mm 0.00 in0.0 mm
06:30 AM 21.6°F-5.8°C 21.4°F-5.9°C 99% Calm Calm -- 29.12 in986.1 mb - 0.00 in0.0 mm 0.00 in0.0 mm
06:45 AM 21.7°F-5.7°C 21.5°F-5.8°C 99% Calm Calm -- 29.11 in985.8 mb - 0.00 in0.0 mm 0.00 in0.0 mm
07:00 AM 21.6°F-5.8°C 21.4°F-5.9°C 99% Calm Calm -- 29.11 in985.8 mb - 0.00 in0.0 mm 0.00 in0.0 mm
07:15 AM 21.1°F-6.1°C 20.8°F-6.2°C 99% Calm Calm -- 29.11 in985.8 mb - 0.00 in0.0 mm 0.00 in0.0 mm
07:30 AM 20.6°F-6.3°C 20.4°F-6.4°C 99% Calm Calm -- 29.10 in985.4 mb - 0.00 in0.0 mm 0.00 in0.0 mm
07:45 AM 20.3°F-6.5°C 20.1°F-6.6°C 99% Calm Calm -- 29.10 in985.4 mb - 0.00 in0.0 mm 0.00 in0.0 mm
08:00 AM 20.5°F-6.4°C 20.3°F-6.5°C 99% Calm Calm -- 29.10 in985.4 mb - 0.00 in0.0 mm 0.00 in0.0 mm
08:15 AM 20.8°F-6.2°C 20.6°F-6.3°C 99% Calm Calm -- 29.11 in985.8 mb - 0.00 in0.0 mm 0.00 in0.0 mm
08:30 AM 21.6°F-5.8°C 21.3°F-5.9°C 99% Calm Calm -- 29.11 in985.8 mb - 0.00 in0.0 mm 0.00 in0.0 mm
08:45 AM 22.5°F-5.3°C 22.3°F-5.4°C 99% Calm Calm 1.2 mph1.9 kmh 29.11 in985.8 mb - 0.00 in0.0 mm 0.00 in0.0 mm
09:00 AM 23.5°F-4.7°C 23.3°F-4.8°C 99% Calm Calm -- 29.12 in986.1 mb - 0.00 in0.0 mm 0.00 in0.0 mm
09:15 AM 25.0°F-3.9°C 24.5°F-4.2°C 98% Calm Calm 1.2 mph1.9 kmh 29.12 in986.1 mb - 0.00 in0.0 mm 0.00 in0.0 mm
09:30 AM 26.2°F-3.2°C 25.5°F-3.6°C 97% Calm Calm -- 29.12 in986.1 mb - 0.00 in0.0 mm 0.00 in0.0 mm
09:45 AM 27.0°F-2.8°C 26.0°F-3.3°C 96% 1.2 mph NNW1.9 kmh NNW 2.3 mph3.7 kmh 29.12 in986.1 mb - 0.00 in0.0 mm 0.00 in0.0 mm
10:00 AM 27.9°F-2.3°C 26.4°F-3.1°C 94% Calm Calm -- 29.12 in986.1 mb - 0.00 in0.0 mm 0.00 in0.0 mm
10:15 AM 28.6°F-1.9°C 26.8°F-2.9°C 93% Calm Calm -- 29.12 in986.1 mb - 0.00 in0.0 mm 0.00 in0.0 mm
10:30 AM 29.5°F-1.4°C 27.7°F-2.4°C 93% 1.2 mph NW1.9 kmh NW 2.3 mph3.7 kmh 29.12 in986.1 mb - 0.00 in0.0 mm 0.00 in0.0 mm
10:45 AM 30.6°F-0.8°C 28.3°F-2.1°C 91% 2.3 mph NNW3.7 kmh NNW 3.5 mph5.6 kmh 29.12 in986.1 mb - 0.00 in0.0 mm 0.00 in0.0 mm
11:00 AM 31.1°F-0.5°C 28.8°F-1.8°C 91% Calm Calm 2.3 mph3.7 kmh 29.12 in986.1 mb - 0.00 in0.0 mm 0.00 in0.0 mm
11:15 AM 31.8°F-0.1°C 28.9°F-1.7°C 89% 1.2 mph WSW1.9 kmh WSW 2.3 mph3.7 kmh 29.12 in986.1 mb - 0.00 in0.0 mm 0.00 in0.0 mm
11:30 AM 32.9°F0.5°C 29.5°F-1.4°C 87% 1.2 mph NW1.9 kmh NW 3.5 mph5.6 kmh 29.12 in986.1 mb - 0.00 in0.0 mm 0.00 in0.0 mm
11:45 AM 33.8°F1.0°C 29.5°F-1.4°C 84% Calm Calm 1.2 mph1.9 kmh 29.12 in986.1 mb - 0.00 in0.0 mm 0.00 in0.0 mm
12:00 PM 34.2°F1.2°C 29.3°F-1.5°C 82% 2.3 mph NW3.7 kmh NW 4.6 mph7.4 kmh 29.12 in986.1 mb - 0.00 in0.0 mm 0.00 in0.0 mm
12:15 PM 36.1°F2.3°C 29.9°F-1.2°C 78% 2.3 mph NW3.7 kmh NW 2.3 mph3.7 kmh 29.12 in986.1 mb - 0.00 in0.0 mm 0.00 in0.0 mm
12:30 PM 37.7°F3.2°C 29.5°F-1.4°C 72% 3.5 mph NNW5.6 kmh NNW 3.5 mph5.6 kmh 29.11 in985.8 mb - 0.00 in0.0 mm 0.00 in0.0 mm
12:45 PM 39.2°F4.0°C 29.5°F-1.4°C 68% 3.5 mph WNW5.6 kmh WNW 4.6 mph7.4 kmh 29.12 in986.1 mb - 0.00 in0.0 mm 0.00 in0.0 mm
01:00 PM 39.7°F4.3°C 29.6°F-1.3°C 67% 3.5 mph N5.6 kmh N 3.5 mph5.6 kmh 29.12 in986.1 mb - 0.00 in0.0 mm 0.00 in0.0 mm
01:15 PM 38.8°F3.8°C 29.1°F-1.6°C 68% 3.5 mph NW5.6 kmh NW 4.6 mph7.4 kmh 29.11 in985.8 mb - 0.00 in0.0 mm 0.00 in0.0 mm
01:30 PM 38.1°F3.4°C 28.5°F-1.9°C 68% 2.3 mph NW3.7 kmh NW 4.6 mph7.4 kmh 29.11 in985.8 mb - 0.01 in0.3 mm 0.01 in0.3 mm
01:45 PM 38.1°F3.4°C 28.5°F-1.9°C 68% 3.5 mph NNW5.6 kmh NNW 3.5 mph5.6 kmh 29.11 in985.8 mb - 0.01 in0.3 mm 0.02 in0.5 mm
02:00 PM 38.1°F3.4°C 28.2°F-2.1°C 67% 2.3 mph W3.7 kmh W 3.5 mph5.6 kmh 29.12 in986.1 mb - 0.01 in0.3 mm 0.02 in0.5 mm
02:15 PM 37.4°F3.0°C 27.8°F-2.3°C 68% 3.5 mph NW5.6 kmh NW 4.6 mph7.4 kmh 29.13 in986.5 mb - 0.00 in0.0 mm 0.02 in0.5 mm
02:30 PM 36.9°F2.7°C 27.3°F-2.6°C 68% 1.2 mph WNW1.9 kmh WNW 2.3 mph3.7 kmh 29.13 in986.5 mb - 0.00 in0.0 mm 0.02 in0.5 mm
02:45 PM 36.2°F2.3°C 27.3°F-2.6°C 70% 2.3 mph N3.7 kmh N 3.5 mph5.6 kmh 29.14 in986.8 mb - 0.00 in0.0 mm 0.02 in0.5 mm
03:00 PM 35.8°F2.1°C 27.0°F-2.8°C 70% 2.3 mph SW3.7 kmh SW 4.6 mph7.4 kmh 29.14 in986.8 mb - 0.00 in0.0 mm 0.02 in0.5 mm
03:15 PM 35.6°F2.0°C 26.4°F-3.1°C 69% 2.3 mph NW3.7 kmh NW 2.3 mph3.7 kmh 29.15 in987.1 mb - 0.00 in0.0 mm 0.02 in0.5 mm
03:30 PM 35.4°F1.9°C 26.2°F-3.2°C 69% 1.2 mph NW1.9 kmh NW 2.3 mph3.7 kmh 29.16 in987.5 mb - 0.01 in0.3 mm 0.03 in0.8 mm
03:45 PM 35.2°F1.8°C 26.0°F-3.3°C 69% 2.3 mph NNW3.7 kmh NNW 2.3 mph3.7 kmh 29.16 in987.5 mb - 0.00 in0.0 mm 0.03 in0.8 mm
04:00 PM 34.7°F1.5°C 25.9°F-3.4°C 70% 2.3 mph NW3.7 kmh NW 2.3 mph3.7 kmh 29.17 in987.8 mb - 0.00 in0.0 mm 0.03 in0.8 mm
04:15 PM 34.3°F1.3°C 25.5°F-3.6°C 70% 2.3 mph NW3.7 kmh NW 3.5 mph5.6 kmh 29.18 in988.1 mb - 0.00 in0.0 mm 0.03 in0.8 mm
04:30 PM 33.6°F0.9°C 25.2°F-3.8°C 71% 1.2 mph NNW1.9 kmh NNW 2.3 mph3.7 kmh 29.19 in988.5 mb - 0.00 in0.0 mm 0.03 in0.8 mm
04:45 PM 33.3°F0.7°C 24.9°F-3.9°C 71% Calm Calm 1.2 mph1.9 kmh 29.19 in988.5 mb - 0.00 in0.0 mm 0.03 in0.8 mm
05:00 PM 32.5°F0.3°C 24.5°F-4.2°C 72% Calm Calm -- 29.20 in988.8 mb - 0.00 in0.0 mm 0.03 in0.8 mm
05:15 PM 31.5°F-0.3°C 24.5°F-4.2°C 75% Calm Calm -- 29.21 in989.2 mb - 0.00 in0.0 mm 0.03 in0.8 mm
05:30 PM 30.9°F-0.6°C 24.8°F-4.0°C 78% Calm Calm 1.2 mph1.9 kmh 29.22 in989.5 mb - 0.00 in0.0 mm 0.03 in0.8 mm
05:45 PM 30.7°F-0.7°C 24.7°F-4.1°C 78% Calm Calm -- 29.23 in989.8 mb - 0.00 in0.0 mm 0.03 in0.8 mm
06:00 PM 30.7°F-0.7°C 24.3°F-4.3°C 77% Calm Calm -- 29.24 in990.2 mb - 0.00 in0.0 mm 0.03 in0.8 mm
06:15 PM 30.6°F-0.8°C 23.9°F-4.5°C 76% 1.2 mph NW1.9 kmh NW 2.3 mph3.7 kmh 29.25 in990.5 mb - 0.00 in0.0 mm 0.03 in0.8 mm
06:30 PM 30.6°F-0.8°C 23.9°F-4.5°C 76% Calm Calm -- 29.25 in990.5 mb - 0.00 in0.0 mm 0.03 in0.8 mm
06:45 PM 30.6°F-0.8°C 23.9°F-4.5°C 76% 1.2 mph NW1.9 kmh NW 2.3 mph3.7 kmh 29.25 in990.5 mb - 0.00 in0.0 mm 0.03 in0.8 mm
07:00 PM 30.1°F-1.1°C 23.5°F-4.7°C 76% Calm Calm -- 29.25 in990.5 mb - 0.00 in0.0 mm 0.03 in0.8 mm
07:15 PM 29.7°F-1.3°C 23.7°F-4.6°C 78% Calm Calm -- 29.26 in990.9 mb - 0.00 in0.0 mm 0.03 in0.8 mm
07:30 PM 29.3°F-1.5°C 23.6°F-4.7°C 79% Calm Calm -- 29.27 in991.2 mb - 0.00 in0.0 mm 0.03 in0.8 mm
07:45 PM 29.3°F-1.5°C 23.6°F-4.7°C 79% 2.3 mph NW3.7 kmh NW 3.5 mph5.6 kmh 29.27 in991.2 mb - 0.00 in0.0 mm 0.03 in0.8 mm
08:00 PM 29.3°F-1.5°C 23.6°F-4.7°C 79% 1.2 mph NW1.9 kmh NW 1.2 mph1.9 kmh 29.28 in991.5 mb - 0.00 in0.0 mm 0.03 in0.8 mm
08:15 PM 29.3°F-1.5°C 23.9°F-4.5°C 80% Calm Calm 1.2 mph1.9 kmh 29.29 in991.9 mb - 0.00 in0.0 mm 0.03 in0.8 mm
08:30 PM 29.1°F-1.6°C 23.7°F-4.6°C 80% 1.2 mph NW1.9 kmh NW 1.2 mph1.9 kmh 29.30 in992.2 mb - 0.00 in0.0 mm 0.03 in0.8 mm
08:45 PM 28.8°F-1.8°C 23.7°F-4.6°C 81% Calm Calm -- 29.30 in992.2 mb - 0.00 in0.0 mm 0.03 in0.8 mm
09:00 PM 28.8°F-1.8°C 23.7°F-4.6°C 81% Calm Calm 1.2 mph1.9 kmh 29.30 in992.2 mb - 0.00 in0.0 mm 0.03 in0.8 mm
09:15 PM 28.2°F-2.1°C 23.4°F-4.8°C 82% Calm Calm -- 29.32 in992.9 mb - 0.00 in0.0 mm 0.03 in0.8 mm
09:30 PM 28.0°F-2.2°C 23.5°F-4.7°C 83% Calm Calm -- 29.32 in992.9 mb - 0.00 in0.0 mm 0.03 in0.8 mm
09:45 PM 27.9°F-2.3°C 23.4°F-4.8°C 83% Calm Calm -- 29.33 in993.2 mb - 0.00 in0.0 mm 0.03 in0.8 mm
10:00 PM 27.1°F-2.7°C 23.2°F-4.9°C 85% Calm Calm -- 29.33 in993.2 mb - 0.00 in0.0 mm 0.03 in0.8 mm
10:15 PM 26.2°F-3.2°C 22.6°F-5.2°C 86% Calm Calm -- 29.34 in993.6 mb - 0.00 in0.0 mm 0.03 in0.8 mm
10:30 PM 25.5°F-3.6°C 22.2°F-5.4°C 87% Calm Calm -- 29.35 in993.9 mb - 0.00 in0.0 mm 0.03 in0.8 mm
10:45 PM 24.6°F-4.1°C 21.6°F-5.8°C 88% Calm Calm -- 29.36 in994.2 mb - 0.00 in0.0 mm 0.03 in0.8 mm
11:00 PM 23.9°F-4.5°C 21.4°F-5.9°C 90% Calm Calm -- 29.36 in994.2 mb - 0.00 in0.0 mm 0.03 in0.8 mm
11:15 PM 23.5°F-4.7°C 21.5°F-5.8°C 92% Calm Calm -- 29.37 in994.6 mb - 0.00 in0.0 mm 0.03 in0.8 mm
11:30 PM 23.9°F-4.5°C 22.2°F-5.4°C 93% Calm Calm -- 29.38 in994.9 mb - 0.00 in0.0 mm 0.03 in0.8 mm
11:45 PM 23.7°F-4.6°C 21.7°F-5.7°C 92% Calm Calm -- 29.38 in994.9 mb - 0.00 in0.0 mm 0.03 in0.8 mm